Time;durP1;ratioP1;P1;durP2;ratioP2;P2;SDS_P1;SDS_P2;PMS_P1;PMS_P2;Temp;Humidity;BMP_temperature;BMP_pressure;BME280_temperature;BME280_humidity;BME280_pressure;Samples;Min_cycle;Max_cycle;Signal;HPM_P1;HPM_P2
2023/03/08 00:01:47;;;;;;;32.05;22.58;;;;;;;;;;5032868;28;20037;-63
2023/03/08 00:04:12;;;;;;;27.58;19.42;;;;;;;;;;5033147;28;20483;-62
2023/03/08 00:06:37;;;;;;;26.27;18.92;;;;;;;;;;5036817;28;20033;-63
2023/03/08 00:09:02;;;;;;;25.90;19.27;;;;;;;;;;5039280;28;20418;-63
2023/03/08 00:11:28;;;;;;;27.23;17.45;;;;;;;;;;5043021;28;20030;-63
2023/03/08 00:13:54;;;;;;;23.25;17.15;;;;;;;;;;5045400;28;20483;-63
2023/03/08 00:16:19;;;;;;;24.63;17.55;;;;;;;;;;5043323;28;20088;-63
2023/03/08 00:18:45;;;;;;;21.98;15.38;;;;;;;;;;5033520;28;20151;-63
2023/03/08 00:21:11;;;;;;;24.73;17.05;;;;;;;;;;5032863;28;20104;-63
2023/03/08 00:23:37;;;;;;;27.20;16.70;;;;;;;;;;5047846;28;20017;-63
2023/03/08 00:26:03;;;;;;;20.88;16.42;;;;;;;;;;5051156;28;20036;-63
2023/03/08 00:28:28;;;;;;;27.95;17.13;;;;;;;;;;5051504;28;20041;-62
2023/03/08 00:31:01;;;;;;;23.13;15.70;;;;;;;;;;5051930;28;20021;-62
2023/03/08 00:33:27;;;;;;;23.25;16.77;;;;;;;;;;5050729;28;20021;-63
2023/03/08 00:35:56;;;;;;;21.60;15.38;;;;;;;;;;5051808;28;20029;-64
2023/03/08 00:38:22;;;;;;;28.38;17.38;;;;;;;;;;5050451;28;20120;-64
2023/03/08 00:40:47;;;;;;;23.95;15.60;;;;;;;;;;5052775;28;20043;-64
2023/03/08 00:43:12;;;;;;;27.58;15.50;;;;;;;;;;5055252;28;20370;-65
2023/03/08 00:45:37;;;;;;;24.52;15.57;;;;;;;;;;5056034;28;20028;-65
2023/03/08 00:48:03;;;;;;;28.80;14.68;;;;;;;;;;5055477;28;20028;-63
2023/03/08 00:50:28;;;;;;;19.77;15.43;;;;;;;;;;5056055;28;20017;-64
2023/03/08 00:52:53;;;;;;;21.92;15.45;;;;;;;;;;5054995;28;20104;-64
2023/03/08 00:55:18;;;;;;;18.95;14.57;;;;;;;;;;5055821;28;20105;-64
2023/03/08 00:57:43;;;;;;;20.55;15.15;;;;;;;;;;5055457;28;20027;-63
2023/03/08 01:00:11;;;;;;;32.60;16.08;;;;;;;;;;5055496;28;20029;-63
2023/03/08 01:02:39;;;;;;;22.88;15.65;;;;;;;;;;5054131;28;20098;-63
2023/03/08 01:05:05;;;;;;;24.38;15.77;;;;;;;;;;5055704;28;20025;-64
2023/03/08 01:07:30;;;;;;;23.80;16.55;;;;;;;;;;5054989;28;20052;-64
2023/03/08 01:09:55;;;;;;;24.52;16.08;;;;;;;;;;5055366;28;20108;-63
2023/03/08 01:12:22;;;;;;;26.52;16.23;;;;;;;;;;5054975;28;20479;-64
2023/03/08 01:14:48;;;;;;;26.70;16.02;;;;;;;;;;5048712;28;20033;-64
2023/03/08 01:17:13;;;;;;;21.20;15.80;;;;;;;;;;5035687;28;20021;-64
2023/03/08 01:19:38;;;;;;;21.30;15.00;;;;;;;;;;5035600;28;20508;-64
2023/03/08 01:22:03;;;;;;;22.70;15.23;;;;;;;;;;5036202;28;20037;-64
2023/03/08 01:24:29;;;;;;;20.20;15.50;;;;;;;;;;5054972;28;20112;-64
2023/03/08 01:26:57;;;;;;;23.48;14.85;;;;;;;;;;5046871;28;20029;-64
2023/03/08 01:29:22;;;;;;;28.55;16.02;;;;;;;;;;5048638;28;20029;-64
2023/03/08 01:31:48;;;;;;;27.40;17.25;;;;;;;;;;5053264;28;20020;-64
2023/03/08 01:34:13;;;;;;;21.40;14.98;;;;;;;;;;5054516;28;20032;-64
2023/03/08 01:36:38;;;;;;;25.58;15.90;;;;;;;;;;5053933;28;20025;-64
2023/03/08 01:39:03;;;;;;;22.52;16.27;;;;;;;;;;5049695;28;20033;-64
2023/03/08 01:41:30;;;;;;;24.42;16.15;;;;;;;;;;5035700;28;20365;-63
2023/03/08 01:43:55;;;;;;;24.35;15.95;;;;;;;;;;5046150;28;20037;-64
2023/03/08 01:46:33;;;;;;;28.33;18.05;;;;;;;;;;5041022;28;20059;-63
2023/03/08 01:49:04;;;;;;;29.00;18.30;;;;;;;;;;5040349;28;20026;-62
2023/03/08 01:51:36;;;;;;;28.33;18.83;;;;;;;;;;5034189;28;20695;-63
2023/03/08 01:54:04;;;;;;;30.42;18.65;;;;;;;;;;5033842;28;20081;-64
2023/03/08 01:56:29;;;;;;;29.15;20.15;;;;;;;;;;5051625;28;20426;-64
2023/03/08 01:58:54;;;;;;;32.50;20.63;;;;;;;;;;5052680;28;20032;-64
2023/03/08 02:01:20;;;;;;;36.28;21.75;;;;;;;;;;5053228;28;20483;-64
2023/03/08 02:03:46;;;;;;;33.72;23.55;;;;;;;;;;5051357;28;20021;-64
2023/03/08 02:06:12;;;;;;;34.20;23.65;;;;;;;;;;5053543;28;20037;-64
2023/03/08 02:08:37;;;;;;;38.35;24.23;;;;;;;;;;5051861;28;20032;-64
2023/03/08 02:11:03;;;;;;;36.13;22.80;;;;;;;;;;5053723;28;20021;-64
2023/03/08 02:13:28;;;;;;;36.53;23.40;;;;;;;;;;5052396;28;20025;-64
2023/03/08 02:15:55;;;;;;;33.58;23.08;;;;;;;;;;5053414;28;20031;-62
2023/03/08 02:18:21;;;;;;;35.53;23.50;;;;;;;;;;5053797;28;20104;-62
2023/03/08 02:20:46;;;;;;;33.80;22.55;;;;;;;;;;5052552;28;20830;-62
2023/03/08 02:23:19;;;;;;;32.90;22.77;;;;;;;;;;5053966;28;20040;-62
2023/03/08 02:25:52;;;;;;;34.87;24.80;;;;;;;;;;5052984;28;20036;-63
2023/03/08 02:28:19;;;;;;;31.63;23.05;;;;;;;;;;5054085;28;20594;-63
2023/03/08 02:30:44;;;;;;;36.80;23.88;;;;;;;;;;5053181;28;20032;-63
2023/03/08 02:33:10;;;;;;;34.72;24.60;;;;;;;;;;5053393;28;20020;-64
2023/03/08 02:35:37;;;;;;;39.35;26.92;;;;;;;;;;5051642;28;20495;-62
2023/03/08 02:38:02;;;;;;;38.03;25.73;;;;;;;;;;5052704;28;20116;-62
2023/03/08 02:40:28;;;;;;;35.63;25.95;;;;;;;;;;5051742;28;20495;-63
2023/03/08 02:42:55;;;;;;;35.75;24.83;;;;;;;;;;5053986;28;20472;-63
2023/03/08 02:45:20;;;;;;;38.35;27.02;;;;;;;;;;5048339;28;20079;-63
2023/03/08 02:47:45;;;;;;;46.05;28.08;;;;;;;;;;5044645;28;20025;-63
2023/03/08 02:50:11;;;;;;;37.03;26.20;;;;;;;;;;5051591;28;20051;-63
2023/03/08 02:52:36;;;;;;;41.15;26.30;;;;;;;;;;5052202;28;20064;-63
2023/03/08 02:55:01;;;;;;;44.35;28.58;;;;;;;;;;5050699;28;20021;-63
2023/03/08 02:57:26;;;;;;;37.03;26.38;;;;;;;;;;5053051;28;20039;-63
2023/03/08 02:59:51;;;;;;;42.13;27.00;;;;;;;;;;5052578;28;20092;-63
2023/03/08 03:02:17;;;;;;;41.83;28.73;;;;;;;;;;5052715;28;20041;-63
2023/03/08 03:04:42;;;;;;;36.75;26.33;;;;;;;;;;5048959;28;20044;-63
2023/03/08 03:07:07;;;;;;;36.00;24.45;;;;;;;;;;5034020;28;20021;-63
2023/03/08 03:09:35;;;;;;;39.03;27.55;;;;;;;;;;5038936;28;20518;-63
2023/03/08 03:12:01;;;;;;;38.65;25.98;;;;;;;;;;5052789;28;20029;-63
2023/03/08 03:14:27;;;;;;;40.22;29.77;;;;;;;;;;5052291;28;20017;-63
2023/03/08 03:16:52;;;;;;;41.33;30.38;;;;;;;;;;5052479;28;20017;-63
2023/03/08 03:19:17;;;;;;;42.20;29.50;;;;;;;;;;5050423;28;20032;-63
2023/03/08 03:21:43;;;;;;;46.50;31.75;;;;;;;;;;5052087;28;20552;-63
2023/03/08 03:24:08;;;;;;;36.42;28.02;;;;;;;;;;5051652;28;20021;-63
2023/03/08 03:26:33;;;;;;;36.20;26.92;;;;;;;;;;5052849;28;20035;-63
2023/03/08 03:28:58;;;;;;;40.13;28.27;;;;;;;;;;5051754;28;20013;-63
2023/03/08 03:31:25;;;;;;;42.25;30.85;;;;;;;;;;5051131;28;20070;-63
2023/03/08 03:33:51;;;;;;;40.60;28.55;;;;;;;;;;5052524;28;20029;-63
2023/03/08 03:36:17;;;;;;;43.38;30.70;;;;;;;;;;5048678;28;20075;-63
2023/03/08 03:38:43;;;;;;;49.88;32.33;;;;;;;;;;5049848;28;20430;-63
2023/03/08 03:41:10;;;;;;;40.90;28.58;;;;;;;;;;5047014;28;20032;-63
2023/03/08 03:43:35;;;;;;;36.08;25.85;;;;;;;;;;5045335;28;20663;-63
2023/03/08 03:46:02;;;;;;;34.50;26.38;;;;;;;;;;5044127;28;20029;-63
2023/03/08 03:48:27;;;;;;;40.25;27.80;;;;;;;;;;5039928;28;20032;-63
2023/03/08 03:51:00;;;;;;;29.77;24.17;;;;;;;;;;5052380;28;20037;-64
2023/03/08 03:53:29;;;;;;;34.65;25.60;;;;;;;;;;5049776;28;20021;-63
2023/03/08 03:55:54;;;;;;;40.83;27.33;;;;;;;;;;5050908;28;20483;-63
2023/03/08 03:58:19;;;;;;;34.25;24.80;;;;;;;;;;5048053;28;20042;-63
2023/03/08 04:00:45;;;;;;;36.03;25.88;;;;;;;;;;5049999;28;20104;-63
2023/03/08 04:03:10;;;;;;;35.22;23.60;;;;;;;;;;5047983;28;20025;-63
2023/03/08 04:05:35;;;;;;;38.72;22.23;;;;;;;;;;5050142;28;20041;-62
2023/03/08 04:08:00;;;;;;;36.28;22.92;;;;;;;;;;5040652;28;20037;-62
2023/03/08 04:10:26;;;;;;;34.05;22.60;;;;;;;;;;5050887;28;20079;-63
2023/03/08 04:12:51;;;;;;;29.65;18.65;;;;;;;;;;5052186;28;20418;-62
2023/03/08 04:15:17;;;;;;;32.85;18.60;;;;;;;;;;5051278;28;20033;-63
2023/03/08 04:17:43;;;;;;;23.30;15.13;;;;;;;;;;5039501;28;20037;-63
2023/03/08 04:20:08;;;;;;;26.95;16.98;;;;;;;;;;5051813;28;20025;-62
2023/03/08 04:22:33;;;;;;;22.52;14.63;;;;;;;;;;5051891;28;20053;-62
2023/03/08 04:24:59;;;;;;;19.25;14.13;;;;;;;;;;5051346;28;20017;-62
2023/03/08 04:27:24;;;;;;;23.02;14.32;;;;;;;;;;5051931;28;20017;-63
2023/03/08 04:29:49;;;;;;;18.77;13.10;;;;;;;;;;5051362;28;20028;-63
2023/03/08 04:32:15;;;;;;;17.15;12.50;;;;;;;;;;5051864;28;20021;-63
2023/03/08 04:34:41;;;;;;;22.85;14.45;;;;;;;;;;5051793;28;20407;-63
2023/03/08 04:37:08;;;;;;;18.65;12.15;;;;;;;;;;5039665;28;20108;-63
2023/03/08 04:39:33;;;;;;;21.40;12.98;;;;;;;;;;5050291;28;20021;-63
2023/03/08 04:41:58;;;;;;;20.00;12.38;;;;;;;;;;5051564;28;20044;-63
2023/03/08 04:44:24;;;;;;;20.00;12.40;;;;;;;;;;5050327;28;20025;-63
2023/03/08 04:46:49;;;;;;;20.05;12.73;;;;;;;;;;5050734;28;20049;-63
2023/03/08 04:49:14;;;;;;;19.08;12.80;;;;;;;;;;5051352;28;20033;-63
2023/03/08 04:51:40;;;;;;;20.17;10.23;;;;;;;;;;5050853;28;20446;-63
2023/03/08 04:54:05;;;;;;;13.82;9.48;;;;;;;;;;5052229;28;20029;-62
2023/03/08 04:56:30;;;;;;;12.82;9.18;;;;;;;;;;5049827;28;20543;-63
2023/03/08 04:58:56;;;;;;;13.25;8.57;;;;;;;;;;5051032;28;20031;-63
2023/03/08 05:01:25;;;;;;;13.30;8.60;;;;;;;;;;5044877;28;20091;-63
2023/03/08 05:03:51;;;;;;;14.82;9.45;;;;;;;;;;5051710;28;20108;-63
2023/03/08 05:06:17;;;;;;;13.57;8.25;;;;;;;;;;5042808;28;20113;-63
2023/03/08 05:08:43;;;;;;;16.58;8.30;;;;;;;;;;5052012;28;20033;-63
2023/03/08 05:11:09;;;;;;;11.70;8.30;;;;;;;;;;5046657;28;20033;-63
2023/03/08 05:13:36;;;;;;;13.27;7.72;;;;;;;;;;5047487;28;20017;-63
2023/03/08 05:16:02;;;;;;;11.55;8.13;;;;;;;;;;5044239;28;20029;-63
2023/03/08 05:18:27;;;;;;;15.57;9.02;;;;;;;;;;5048586;28;20025;-64
2023/03/08 05:20:53;;;;;;;15.23;8.73;;;;;;;;;;5044954;28;20041;-64
2023/03/08 05:23:19;;;;;;;11.93;9.25;;;;;;;;;;5048740;28;20066;-64
2023/03/08 05:25:44;;;;;;;23.60;9.82;;;;;;;;;;5045360;28;20104;-64
2023/03/08 05:28:14;;;;;;;13.90;10.45;;;;;;;;;;5049894;28;20032;-64
2023/03/08 05:30:39;;;;;;;14.70;11.00;;;;;;;;;;5050685;28;20025;-64
2023/03/08 05:33:05;;;;;;;15.60;11.02;;;;;;;;;;5053020;28;20036;-64
2023/03/08 05:35:30;;;;;;;20.38;12.50;;;;;;;;;;5050846;28;20048;-64
2023/03/08 05:37:55;;;;;;;14.98;12.07;;;;;;;;;;5052632;28;20035;-65
2023/03/08 05:40:20;;;;;;;16.88;12.57;;;;;;;;;;5054405;28;20086;-64
2023/03/08 05:42:46;;;;;;;16.67;12.88;;;;;;;;;;5050882;28;20067;-64
2023/03/08 05:45:11;;;;;;;20.30;14.35;;;;;;;;;;5043023;28;20460;-65
2023/03/08 05:47:36;;;;;;;19.17;14.10;;;;;;;;;;5048828;28;20036;-64
2023/03/08 05:50:02;;;;;;;17.40;13.02;;;;;;;;;;5051842;28;20436;-65
2023/03/08 05:52:28;;;;;;;16.40;12.85;;;;;;;;;;5039699;28;20015;-65
2023/03/08 05:54:53;;;;;;;16.90;12.52;;;;;;;;;;5044545;28;20024;-65
2023/03/08 05:57:18;;;;;;;17.17;12.10;;;;;;;;;;5042820;28;20022;-65
2023/03/08 05:59:44;;;;;;;21.27;13.73;;;;;;;;;;5047143;28;20028;-65
2023/03/08 06:02:09;;;;;;;17.67;13.20;;;;;;;;;;5043332;28;20502;-65
2023/03/08 06:04:34;;;;;;;17.40;12.30;;;;;;;;;;5041009;28;20032;-65
2023/03/08 06:06:59;;;;;;;18.00;12.85;;;;;;;;;;5039880;28;21168;-65
2023/03/08 06:09:25;;;;;;;16.65;12.15;;;;;;;;;;5046481;28;20025;-65
2023/03/08 06:11:50;;;;;;;17.33;13.57;;;;;;;;;;5043490;28;20522;-65
2023/03/08 06:14:15;;;;;;;17.33;11.73;;;;;;;;;;5050886;28;20092;-65
2023/03/08 06:16:41;;;;;;;15.48;11.80;;;;;;;;;;5035918;28;20105;-65
2023/03/08 06:19:06;;;;;;;17.13;11.15;;;;;;;;;;5037046;28;20063;-65
2023/03/08 06:21:31;;;;;;;15.70;11.35;;;;;;;;;;5035613;28;20472;-66
2023/03/08 06:23:56;;;;;;;12.70;10.27;;;;;;;;;;5048788;28;20013;-65
2023/03/08 06:26:22;;;;;;;20.08;11.30;;;;;;;;;;5036455;28;20488;-66
2023/03/08 06:28:47;;;;;;;13.25;9.60;;;;;;;;;;5037159;28;20021;-66
2023/03/08 06:31:14;;;;;;;11.82;8.52;;;;;;;;;;5043889;28;20040;-66
2023/03/08 06:33:39;;;;;;;12.35;7.88;;;;;;;;;;5043329;28;20029;-65
2023/03/08 06:36:09;;;;;;;11.45;7.90;;;;;;;;;;5036761;28;20112;-65
2023/03/08 06:38:36;;;;;;;13.63;8.07;;;;;;;;;;5038972;28;20078;-65
2023/03/08 06:41:01;;;;;;;9.98;6.93;;;;;;;;;;5047018;28;20384;-66
2023/03/08 06:43:27;;;;;;;11.32;6.50;;;;;;;;;;5034035;28;20025;-65
2023/03/08 06:45:53;;;;;;;9.80;6.82;;;;;;;;;;5034509;28;20036;-65
2023/03/08 06:48:18;;;;;;;9.50;6.35;;;;;;;;;;5034457;28;20017;-64
2023/03/08 06:50:44;;;;;;;9.25;6.70;;;;;;;;;;5034003;28;20032;-65
2023/03/08 06:53:11;;;;;;;8.10;6.68;;;;;;;;;;5034365;28;20029;-65
2023/03/08 06:55:37;;;;;;;8.77;6.40;;;;;;;;;;5046164;28;20029;-65
2023/03/08 06:58:03;;;;;;;9.77;6.70;;;;;;;;;;5043747;28;20032;-64
2023/03/08 07:00:28;;;;;;;8.73;6.47;;;;;;;;;;5049830;28;20063;-64
2023/03/08 07:02:54;;;;;;;9.60;6.38;;;;;;;;;;5049718;28;20036;-64
2023/03/08 07:05:20;;;;;;;9.02;6.57;;;;;;;;;;5047298;28;20120;-64
2023/03/08 07:07:45;;;;;;;10.18;8.27;;;;;;;;;;5048074;28;20100;-65
2023/03/08 07:10:13;;;;;;;11.65;7.88;;;;;;;;;;5047461;28;20483;-65
2023/03/08 07:12:42;;;;;;;10.98;8.10;;;;;;;;;;5035292;28;20515;-65
2023/03/08 07:15:07;;;;;;;12.75;9.80;;;;;;;;;;5046204;28;20025;-65
2023/03/08 07:17:34;;;;;;;12.57;9.15;;;;;;;;;;5052081;28;20020;-65
2023/03/08 07:19:59;;;;;;;13.80;9.60;;;;;;;;;;5053154;28;20472;-65
2023/03/08 07:22:25;;;;;;;15.00;10.13;;;;;;;;;;5052182;28;20104;-65
2023/03/08 07:24:50;;;;;;;13.93;9.23;;;;;;;;;;5053057;28;20056;-68
2023/03/08 07:27:15;;;;;;;13.27;10.25;;;;;;;;;;5046995;28;20452;-65
2023/03/08 07:29:40;;;;;;;12.50;9.85;;;;;;;;;;5036725;28;20044;-65
2023/03/08 07:32:06;;;;;;;15.25;10.70;;;;;;;;;;5038855;28;20504;-65
2023/03/08 07:34:31;;;;;;;15.82;10.57;;;;;;;;;;5036522;28;20435;-65
2023/03/08 07:36:56;;;;;;;15.75;11.00;;;;;;;;;;5037611;28;20104;-66
2023/03/08 07:39:22;;;;;;;13.02;9.98;;;;;;;;;;5037396;28;20048;-66
2023/03/08 07:41:48;;;;;;;15.65;10.50;;;;;;;;;;5043694;28;20064;-65
2023/03/08 07:44:14;;;;;;;12.75;9.55;;;;;;;;;;5033808;28;20152;-65
2023/03/08 07:46:39;;;;;;;14.27;9.93;;;;;;;;;;5032995;28;20105;-65
2023/03/08 07:49:09;;;;;;;12.57;10.05;;;;;;;;;;5038964;28;20533;-65
2023/03/08 07:51:34;;;;;;;13.23;10.82;;;;;;;;;;5040448;28;20036;-65
2023/03/08 07:53:59;;;;;;;14.93;11.45;;;;;;;;;;5049931;28;20041;-65
2023/03/08 07:56:25;;;;;;;14.32;10.57;;;;;;;;;;5050418;28;20037;-65
2023/03/08 07:58:50;;;;;;;16.08;11.43;;;;;;;;;;5050104;28;20479;-64
2023/03/08 08:01:15;;;;;;;17.90;13.20;;;;;;;;;;5050417;28;20035;-65
2023/03/08 08:03:40;;;;;;;18.52;14.45;;;;;;;;;;5046687;28;20029;-65
2023/03/08 08:06:06;;;;;;;19.58;13.85;;;;;;;;;;5049696;28;20071;-65
2023/03/08 08:08:31;;;;;;;15.60;11.93;;;;;;;;;;5046510;28;20028;-65
2023/03/08 08:10:57;;;;;;;16.50;12.63;;;;;;;;;;5048223;28;20044;-65
2023/03/08 08:13:22;;;;;;;19.63;14.98;;;;;;;;;;5043215;28;20025;-65
2023/03/08 08:15:56;;;;;;;20.90;14.75;;;;;;;;;;5038803;28;20013;-65
2023/03/08 08:18:21;;;;;;;19.88;15.20;;;;;;;;;;5041006;28;20380;-66
2023/03/08 08:20:46;;;;;;;19.77;15.52;;;;;;;;;;5034514;28;20028;-65
2023/03/08 08:23:11;;;;;;;19.70;15.98;;;;;;;;;;5033121;28;20124;-65
2023/03/08 08:25:37;;;;;;;22.25;16.88;;;;;;;;;;5033284;28;20036;-65
2023/03/08 08:28:03;;;;;;;20.25;15.27;;;;;;;;;;5033873;28;20044;-65
2023/03/08 08:30:28;;;;;;;20.70;16.13;;;;;;;;;;5036496;28;20024;-65
2023/03/08 08:32:53;;;;;;;22.52;17.38;;;;;;;;;;5034931;28;20049;-65
2023/03/08 08:35:18;;;;;;;19.33;15.40;;;;;;;;;;5036651;28;20105;-65
2023/03/08 08:37:44;;;;;;;22.63;17.77;;;;;;;;;;5034236;28;20376;-65
2023/03/08 08:40:10;;;;;;;18.05;15.07;;;;;;;;;;5042646;28;20082;-65
2023/03/08 08:42:35;;;;;;;22.73;17.25;;;;;;;;;;5051115;28;20519;-64
2023/03/08 08:45:00;;;;;;;21.10;17.40;;;;;;;;;;5051361;28;20036;-64
2023/03/08 08:47:27;;;;;;;22.10;17.13;;;;;;;;;;5049675;28;20013;-64
2023/03/08 08:49:52;;;;;;;22.48;17.95;;;;;;;;;;5044880;28;20464;-64
2023/03/08 08:52:18;;;;;;;24.92;18.67;;;;;;;;;;5045597;28;20047;-65
2023/03/08 08:54:43;;;;;;;22.05;18.15;;;;;;;;;;5049602;28;20375;-64
2023/03/08 08:57:08;;;;;;;26.80;20.30;;;;;;;;;;5045261;28;20021;-63
2023/03/08 08:59:33;;;;;;;24.95;18.65;;;;;;;;;;5049124;28;20037;-64
2023/03/08 09:01:59;;;;;;;29.70;19.10;;;;;;;;;;5050368;28;20033;-65
2023/03/08 09:04:24;;;;;;;31.13;23.73;;;;;;;;;;5048705;28;20394;-64
2023/03/08 09:06:49;;;;;;;32.35;24.05;;;;;;;;;;5050233;28;20025;-64
2023/03/08 09:09:16;;;;;;;22.63;19.75;;;;;;;;;;5052178;28;20035;-65
2023/03/08 09:11:41;;;;;;;34.63;23.95;;;;;;;;;;5055299;28;20120;-64
2023/03/08 09:14:06;;;;;;;27.88;21.95;;;;;;;;;;5054918;28;20534;-66
2023/03/08 09:16:32;;;;;;;26.48;21.77;;;;;;;;;;5055025;28;20057;-64
2023/03/08 09:18:59;;;;;;;28.35;21.60;;;;;;;;;;5051792;28;20530;-65
2023/03/08 09:21:25;;;;;;;27.40;21.65;;;;;;;;;;5035560;28;20108;-66
2023/03/08 09:23:50;;;;;;;25.20;20.15;;;;;;;;;;5051356;28;20036;-65
2023/03/08 09:26:16;;;;;;;27.08;21.55;;;;;;;;;;5054991;28;20024;-65
2023/03/08 09:28:41;;;;;;;24.40;19.70;;;;;;;;;;5054874;28;20040;-65
2023/03/08 09:31:13;;;;;;;25.58;20.25;;;;;;;;;;5054430;28;20422;-65
2023/03/08 09:33:39;;;;;;;27.27;22.90;;;;;;;;;;5037253;28;20025;-65
2023/03/08 09:36:04;;;;;;;26.00;19.77;;;;;;;;;;5045257;28;20031;-65
2023/03/08 09:38:30;;;;;;;27.73;20.15;;;;;;;;;;5052772;28;20045;-65
2023/03/08 09:41:14;;;;;;;26.17;19.23;;;;;;;;;;5054597;28;20029;-65
2023/03/08 09:43:48;;;;;;;25.48;20.60;;;;;;;;;;5044131;28;20086;-65
2023/03/08 09:46:13;;;;;;;;;;;;;;;;;;5040743;28;20104;-65
2023/03/08 09:48:43;;;;;;;24.55;19.15;;;;;;;;;;5055135;28;19944;-65
2023/03/08 09:51:10;;;;;;;28.95;20.77;;;;;;;;;;5053670;28;20098;-65
2023/03/08 09:53:41;;;;;;;29.92;21.65;;;;;;;;;;5053958;28;20063;-65
2023/03/08 09:56:19;;;;;;;23.50;19.77;;;;;;;;;;5049357;28;20555;-66
2023/03/08 09:58:49;;;;;;;25.58;20.45;;;;;;;;;;5050110;28;20435;-66
2023/03/08 10:01:21;;;;;;;26.00;20.17;;;;;;;;;;5050187;28;20021;-66
2023/03/08 10:04:00;;;;;;;23.33;19.45;;;;;;;;;;5049833;28;20025;-65
2023/03/08 10:06:34;;;;;;;24.38;19.30;;;;;;;;;;5052052;28;20049;-65
2023/03/08 10:09:18;;;;;;;26.02;19.27;;;;;;;;;;5051159;28;20471;-64
2023/03/08 10:12:05;;;;;;;24.00;19.33;;;;;;;;;;5053836;28;20482;-64
2023/03/08 10:14:33;;;;;;;26.77;19.08;;;;;;;;;;5039364;28;20490;-64
2023/03/08 10:17:03;;;;;;;22.70;19.30;;;;;;;;;;5048009;28;20025;-64
2023/03/08 10:19:34;;;;;;;21.15;16.70;;;;;;;;;;5050851;28;20423;-64
2023/03/08 10:22:03;;;;;;;24.35;17.60;;;;;;;;;;5049910;28;20029;-64
2023/03/08 10:24:33;;;;;;;25.80;17.70;;;;;;;;;;5051770;28;20136;-64
2023/03/08 10:27:17;;;;;;;24.33;18.30;;;;;;;;;;5050205;28;20029;-64
2023/03/08 10:29:49;;;;;;;21.90;18.40;;;;;;;;;;5050462;28;20033;-64
2023/03/08 10:32:15;;;;;;;22.52;18.75;;;;;;;;;;5050085;28;20071;-63
2023/03/08 10:34:40;;;;;;;28.55;19.70;;;;;;;;;;5052526;28;20021;-64
2023/03/08 10:37:06;;;;;;;28.52;20.60;;;;;;;;;;5052052;28;20028;-63
2023/03/08 10:39:31;;;;;;;30.10;21.65;;;;;;;;;;5053116;28;20033;-63
2023/03/08 10:41:58;;;;;;;24.42;19.27;;;;;;;;;;5049160;28;20062;-63
2023/03/08 10:44:43;;;;;;;24.27;19.02;;;;;;;;;;5047812;28;20052;-63
2023/03/08 10:47:25;;;;;;;22.73;18.73;;;;;;;;;;5050703;28;20031;-64
2023/03/08 10:50:05;;;;;;;25.60;19.83;;;;;;;;;;5051665;28;20423;-63
2023/03/08 10:52:30;;;;;;;26.02;20.45;;;;;;;;;;5051524;28;20024;-63
2023/03/08 10:55:01;;;;;;;29.33;20.45;;;;;;;;;;5049353;28;20033;-62
2023/03/08 10:57:26;;;;;;;28.92;21.35;;;;;;;;;;5051467;28;20025;-62
2023/03/08 10:59:52;;;;;;;28.58;20.15;;;;;;;;;;5048850;28;20418;-63
2023/03/08 11:02:21;;;;;;;24.85;19.58;;;;;;;;;;5050584;28;20021;-62
2023/03/08 11:04:55;;;;;;;28.23;19.77;;;;;;;;;;5042611;28;20048;-63
2023/03/08 11:07:31;;;;;;;26.17;19.75;;;;;;;;;;5049326;28;20434;-63
2023/03/08 11:10:13;;;;;;;26.98;19.55;;;;;;;;;;5050068;28;20025;-63
2023/03/08 11:12:38;;;;;;;25.40;20.20;;;;;;;;;;5050954;28;20501;-66
2023/03/08 11:15:17;;;;;;;24.65;20.13;;;;;;;;;;5050928;28;20120;-64
2023/03/08 11:17:49;;;;;;;26.02;19.75;;;;;;;;;;5049440;28;20414;-64
2023/03/08 11:20:50;;;;;;;28.95;21.00;;;;;;;;;;5050837;28;20043;-64
2023/03/08 11:23:27;;;;;;;26.73;20.60;;;;;;;;;;5028733;28;20504;-63
2023/03/08 11:26:01;;;;;;;29.40;21.50;;;;;;;;;;5047202;28;20032;-63
2023/03/08 11:28:26;;;;;;;30.40;21.70;;;;;;;;;;5050612;28;20040;-63
2023/03/08 11:30:51;;;;;;;26.95;21.60;;;;;;;;;;5052133;28;20025;-64
2023/03/08 11:33:26;;;;;;;27.63;20.92;;;;;;;;;;5051669;28;20100;-64
2023/03/08 11:35:51;;;;;;;;;;;;;;;;;;5043583;28;20041;-64
2023/03/08 11:38:35;;;;;;;31.37;23.33;;;;;;;;;;5049406;28;19912;-65
2023/03/08 11:41:03;;;;;;;32.78;22.05;;;;;;;;;;5051257;28;20314;-65
2023/03/08 11:43:37;;;;;;;32.25;22.67;;;;;;;;;;5051851;28;20032;-65
2023/03/08 11:46:02;;;;;;;;;;;;;;;;;;5050738;28;20025;-65
2023/03/08 11:48:36;;;;;;;30.95;22.88;;;;;;;;;;5052462;28;19919;-65
2023/03/08 11:51:07;;;;;;;29.65;22.90;;;;;;;;;;5047395;28;20035;-65
2023/03/08 11:53:39;;;;;;;33.63;21.75;;;;;;;;;;5051004;28;20112;-67
2023/03/08 11:56:25;;;;;;;27.98;22.92;;;;;;;;;;5049759;28;20032;-66
2023/03/08 11:59:05;;;;;;;30.25;24.02;;;;;;;;;;5050164;28;20043;-65
2023/03/08 12:01:44;;;;;;;36.45;25.27;;;;;;;;;;5048924;28;20037;-65
2023/03/08 12:04:12;;;;;;;30.73;24.02;;;;;;;;;;5042888;28;20049;-65
2023/03/08 12:06:39;;;;;;;39.15;25.52;;;;;;;;;;5046866;28;20031;-65
2023/03/08 12:09:12;;;;;;;39.08;26.88;;;;;;;;;;5043947;28;20033;-65
2023/03/08 12:11:42;;;;;;;37.72;27.95;;;;;;;;;;5049940;28;20060;-66
2023/03/08 12:14:16;;;;;;;37.20;28.45;;;;;;;;;;5049426;28;20029;-67
2023/03/08 12:16:53;;;;;;;34.83;26.73;;;;;;;;;;5038921;28;20038;-66
2023/03/08 12:19:25;;;;;;;32.75;25.58;;;;;;;;;;5038711;28;20348;-66
2023/03/08 12:22:02;;;;;;;36.38;26.65;;;;;;;;;;5047272;28;20033;-66
2023/03/08 12:24:33;;;;;;;36.50;27.35;;;;;;;;;;5045701;28;20540;-66
2023/03/08 12:27:07;;;;;;;35.15;25.02;;;;;;;;;;5036752;28;20115;-65
2023/03/08 12:29:32;;;;;;;;;;;;;;;;;;5039801;28;20025;-65
2023/03/08 12:31:58;;;;;;;33.28;24.33;;;;;;;;;;5048087;28;19924;-66
2023/03/08 12:34:43;;;;;;;32.75;22.25;;;;;;;;;;5035233;28;20025;-66
2023/03/08 12:37:22;;;;;;;30.88;23.35;;;;;;;;;;5037741;28;20099;-66
2023/03/08 12:40:14;;;;;;;29.05;22.55;;;;;;;;;;5054980;28;20028;-66
2023/03/08 12:42:40;;;;;;;32.85;23.48;;;;;;;;;;5031208;28;20438;-68
2023/03/08 12:45:06;;;;;;;33.95;23.45;;;;;;;;;;5052767;28;20025;-68
2023/03/08 12:47:32;;;;;;;30.58;21.85;;;;;;;;;;5053881;28;20060;-68
2023/03/08 12:50:05;;;;;;;32.45;21.90;;;;;;;;;;5052598;28;20107;-68
2023/03/08 12:52:33;;;;;;;28.80;22.30;;;;;;;;;;5053595;28;20059;-68
2023/03/08 12:55:01;;;;;;;32.80;22.25;;;;;;;;;;5053248;28;20013;-68
2023/03/08 12:57:46;;;;;;;29.52;21.88;;;;;;;;;;5052156;28;20444;-69
2023/03/08 13:00:30;;;;;;;29.92;21.10;;;;;;;;;;5052960;28;20108;-68
2023/03/08 13:03:04;;;;;;;33.17;24.10;;;;;;;;;;5050790;28;20021;-68
2023/03/08 13:05:30;;;;;;;;;;;;;;;;;;5054616;28;20078;-66
2023/03/08 13:08:13;;;;;;;29.98;22.17;;;;;;;;;;5050120;28;20011;-68
2023/03/08 13:10:38;;;;;;;27.93;22.67;;;;;;;;;;5052326;28;20356;-67
2023/03/08 13:13:10;;;;;;;29.92;22.40;;;;;;;;;;5052593;28;20028;-68
2023/03/08 13:15:36;;;;;;;33.38;23.65;;;;;;;;;;5053487;28;20032;-67
2023/03/08 13:18:09;;;;;;;31.05;23.70;;;;;;;;;;5053249;28;20036;-66
2023/03/08 13:20:38;;;;;;;27.35;21.25;;;;;;;;;;5049242;28;20037;-67
2023/03/08 13:23:06;;;;;;;33.47;23.13;;;;;;;;;;5052689;28;20025;-67
2023/03/08 13:25:34;;;;;;;32.45;23.38;;;;;;;;;;5050123;28;20503;-67
2023/03/08 13:28:05;;;;;;;31.60;23.52;;;;;;;;;;5051363;28;20472;-67
2023/03/08 13:30:50;;;;;;;34.75;24.05;;;;;;;;;;5050269;28;20413;-67
2023/03/08 13:33:22;;;;;;;35.50;24.83;;;;;;;;;;5048277;28;20028;-66
2023/03/08 13:35:58;;;;;;;33.08;24.73;;;;;;;;;;5053565;28;20036;-66
2023/03/08 13:38:24;;;;;;;30.88;24.20;;;;;;;;;;5052427;28;20018;-66
2023/03/08 13:40:52;;;;;;;36.33;26.58;;;;;;;;;;5052935;28;20025;-65
2023/03/08 13:43:19;;;;;;;37.17;25.65;;;;;;;;;;5046280;28;20388;-65
2023/03/08 13:45:46;;;;;;;34.33;23.58;;;;;;;;;;5051438;28;20372;-65
2023/03/08 13:48:12;;;;;;;35.45;26.02;;;;;;;;;;5053009;28;20037;-65
2023/03/08 13:50:41;;;;;;;32.78;26.65;;;;;;;;;;5048762;28;20017;-64
2023/03/08 13:53:09;;;;;;;33.97;27.33;;;;;;;;;;5041421;28;20021;-65
2023/03/08 13:55:37;;;;;;;37.65;27.05;;;;;;;;;;5039583;28;20032;-65
2023/03/08 13:58:03;;;;;;;41.15;28.63;;;;;;;;;;5049038;28;20024;-64
2023/03/08 14:00:28;;;;;;;43.45;29.10;;;;;;;;;;5046467;28;20020;-63
2023/03/08 14:02:54;;;;;;;45.00;30.73;;;;;;;;;;5044114;28;20029;-65
2023/03/08 14:05:30;;;;;;;43.75;31.50;;;;;;;;;;5046670;28;20056;-65
2023/03/08 14:07:56;;;;;;;41.15;31.77;;;;;;;;;;5046825;28;20361;-65
2023/03/08 14:10:26;;;;;;;44.65;30.40;;;;;;;;;;5047621;28;20029;-66
2023/03/08 14:12:51;;;;;;;45.70;31.65;;;;;;;;;;5051788;28;20040;-67
2023/03/08 14:15:17;;;;;;;47.85;32.33;;;;;;;;;;5049237;28;20033;-64
2023/03/08 14:17:43;;;;;;;44.97;32.67;;;;;;;;;;5047565;28;20104;-63
2023/03/08 14:20:21;;;;;;;51.22;33.35;;;;;;;;;;5046396;28;20428;-63
2023/03/08 14:22:48;;;;;;;50.67;33.17;;;;;;;;;;5052633;28;20037;-64
2023/03/08 14:25:24;;;;;;;43.83;32.83;;;;;;;;;;5050548;28;20088;-64